createdAt,value
2018-05-06T00:00:43.900Z,12.40
2018-05-06T00:03:11.458Z,12.30
2018-05-06T00:05:38.989Z,12.30
2018-05-06T00:08:06.531Z,12.30
2018-05-06T00:10:34.080Z,12.20
2018-05-06T00:13:01.571Z,12.20
2018-05-06T00:15:29.107Z,12.10
2018-05-06T00:17:56.699Z,12.10
2018-05-06T00:20:24.222Z,12.00
2018-05-06T00:22:51.730Z,11.90
2018-05-06T00:25:19.275Z,11.90
2018-05-06T00:27:46.769Z,11.80
2018-05-06T00:30:14.403Z,11.80
2018-05-06T00:32:41.899Z,11.80
2018-05-06T00:35:09.446Z,11.80
2018-05-06T00:37:36.931Z,11.80
2018-05-06T00:40:04.458Z,11.80
2018-05-06T00:42:31.970Z,11.80
2018-05-06T00:45:00.281Z,11.70
2018-05-06T00:47:27.774Z,11.70
2018-05-06T00:49:55.312Z,11.60
2018-05-06T00:52:22.801Z,11.60
2018-05-06T00:54:50.301Z,11.60
2018-05-06T00:57:17.854Z,11.50
2018-05-06T00:59:45.394Z,11.50
2018-05-06T01:02:12.891Z,11.50
2018-05-06T01:04:40.426Z,11.60
2018-05-06T01:07:07.939Z,11.50
2018-05-06T01:09:35.462Z,11.50
2018-05-06T01:12:02.967Z,11.50
2018-05-06T01:14:30.741Z,11.40
2018-05-06T01:16:58.228Z,11.40
2018-05-06T01:19:26.519Z,11.30
2018-05-06T01:21:54.019Z,11.30
2018-05-06T01:24:21.554Z,11.30
2018-05-06T01:26:49.046Z,11.30
2018-05-06T01:29:16.577Z,11.20
2018-05-06T01:31:44.067Z,11.20
2018-05-06T01:34:11.587Z,11.20
2018-05-06T01:36:39.095Z,11.10
2018-05-06T01:39:07.247Z,11.10
2018-05-06T01:41:34.746Z,11.10
2018-05-06T01:44:02.267Z,11.00
2018-05-06T01:46:29.755Z,11.00
2018-05-06T01:48:58.042Z,11.00
2018-05-06T01:51:25.759Z,11.00
2018-05-06T01:53:53.466Z,11.00
2018-05-06T01:56:20.967Z,11.00
2018-05-06T01:58:48.592Z,10.90
2018-05-06T02:01:16.127Z,11.00
2018-05-06T02:03:44.463Z,10.90
2018-05-06T02:06:11.975Z,10.90
2018-05-06T02:08:39.465Z,10.90
2018-05-06T02:11:07.002Z,10.90
2018-05-06T02:13:35.334Z,10.80
2018-05-06T02:16:02.870Z,10.80
2018-05-06T02:18:30.369Z,10.80
2018-05-06T02:20:57.914Z,10.70
2018-05-06T02:23:25.434Z,10.70
2018-05-06T02:25:52.956Z,10.60
2018-05-06T02:28:21.211Z,10.60
2018-05-06T02:30:48.782Z,10.60
2018-05-06T02:33:17.780Z,10.60
2018-05-06T02:35:45.323Z,10.60
2018-05-06T02:38:12.827Z,10.50
2018-05-06T02:40:40.362Z,10.50
2018-05-06T02:43:08.630Z,10.50
2018-05-06T02:45:36.167Z,10.40
2018-05-06T02:48:03.655Z,10.50
2018-05-06T02:50:32.070Z,10.40
2018-05-06T02:52:59.617Z,10.40
2018-05-06T02:55:27.154Z,10.40
2018-05-06T02:57:55.492Z,10.40
2018-05-06T03:00:23.026Z,10.40
2018-05-06T03:02:50.525Z,10.30
2018-05-06T03:05:18.063Z,10.40
2018-05-06T03:07:45.554Z,10.30
2018-05-06T03:10:13.854Z,10.30
2018-05-06T03:12:41.470Z,10.30
2018-05-06T03:15:08.996Z,10.30
2018-05-06T03:17:36.494Z,10.30
2018-05-06T03:20:04.034Z,10.20
2018-05-06T03:22:31.657Z,10.20
2018-05-06T03:24:59.214Z,10.10
2018-05-06T03:27:26.711Z,10.10
2018-05-06T03:29:54.398Z,10.00
2018-05-06T03:32:21.982Z,10.00
2018-05-06T03:34:49.599Z,10.00
2018-05-06T03:37:17.098Z,10.00
2018-05-06T03:39:44.650Z,10.00
2018-05-06T03:42:13.206Z,9.90
2018-05-06T03:44:40.771Z,9.90
2018-05-06T03:47:08.864Z,9.90
2018-05-06T03:49:37.130Z,10.00
2018-05-06T03:52:04.698Z,10.00
2018-05-06T03:54:32.407Z,10.10
2018-05-06T03:57:11.739Z,10.20
2018-05-06T03:59:51.250Z,10.30
2018-05-06T04:05:16.607Z,10.60
2018-05-06T04:07:44.106Z,10.80
2018-05-06T04:10:11.631Z,10.80
2018-05-06T04:12:39.128Z,10.90
2018-05-06T04:15:06.682Z,11.00
2018-05-06T04:17:34.171Z,11.10
2018-05-06T04:20:01.667Z,11.20
2018-05-06T04:22:29.203Z,11.30
2018-05-06T04:24:56.691Z,11.50
2018-05-06T04:27:24.243Z,11.60
2018-05-06T04:29:51.731Z,11.70
2018-05-06T04:32:19.282Z,11.80
2018-05-06T04:34:46.774Z,12.00
2018-05-06T04:37:14.323Z,12.10
2018-05-06T04:39:41.823Z,12.20
2018-05-06T04:42:09.403Z,12.30
2018-05-06T04:44:36.881Z,12.40
2018-05-06T04:47:04.374Z,12.50
2018-05-06T04:49:33.062Z,12.70
2018-05-06T04:52:01.373Z,12.90
2018-05-06T04:54:28.864Z,12.80
2018-05-06T04:56:56.363Z,12.90
2018-05-06T04:59:23.894Z,13.00
2018-05-06T05:01:52.169Z,13.20
2018-05-06T05:04:19.699Z,13.20
2018-05-06T05:06:47.190Z,13.30
2018-05-06T05:09:14.722Z,13.30
2018-05-06T05:11:42.216Z,13.40
2018-05-06T05:14:10.513Z,13.60
2018-05-06T05:16:38.001Z,13.60
2018-05-06T05:19:05.535Z,13.60
2018-05-06T05:21:33.035Z,13.70
2018-05-06T05:24:00.574Z,13.70
2018-05-06T05:26:28.123Z,13.80
2018-05-06T05:28:55.651Z,13.90
2018-05-06T05:31:23.958Z,14.00
2018-05-06T05:33:51.448Z,14.00
2018-05-06T05:36:18.994Z,14.10
2018-05-06T05:38:46.479Z,14.20
2018-05-06T05:41:13.971Z,14.30
2018-05-06T05:43:41.516Z,14.30
2018-05-06T05:46:09.054Z,14.30
2018-05-06T05:48:36.604Z,14.40
2018-05-06T05:51:04.148Z,14.50
2018-05-06T05:53:31.651Z,14.50
2018-05-06T05:55:59.955Z,14.60
2018-05-06T05:58:27.522Z,14.60
2018-05-06T06:00:55.101Z,14.70
2018-05-06T06:03:22.610Z,14.80
2018-05-06T06:05:50.168Z,14.80
2018-05-06T06:08:18.446Z,14.90
2018-05-06T06:10:46.746Z,15.00
2018-05-06T06:13:14.266Z,15.00
2018-05-06T06:15:41.764Z,15.10
2018-05-06T06:18:09.293Z,15.10
2018-05-06T06:20:37.571Z,15.30
2018-05-06T06:23:05.862Z,15.30
2018-05-06T06:25:33.379Z,15.30
2018-05-06T06:28:00.926Z,15.40
2018-05-06T06:30:28.415Z,15.50
2018-05-06T06:32:56.736Z,15.60
2018-05-06T06:35:24.227Z,15.60
2018-05-06T06:37:51.759Z,15.70
2018-05-06T06:40:19.258Z,15.70
2018-05-06T06:42:46.812Z,15.80
2018-05-06T06:45:14.311Z,15.90
2018-05-06T06:47:41.849Z,16.00
2018-05-06T06:50:10.122Z,16.10
2018-05-06T06:52:38.439Z,16.10
2018-05-06T06:55:05.940Z,16.10
2018-05-06T06:57:33.490Z,16.20
2018-05-06T07:00:01.034Z,16.30
2018-05-06T07:02:28.563Z,16.30
2018-05-06T07:04:56.050Z,16.40
2018-05-06T07:07:23.554Z,16.50
2018-05-06T07:09:51.876Z,16.70
2018-05-06T07:12:19.375Z,16.60
2018-05-06T07:14:46.925Z,16.80
2018-05-06T07:17:14.432Z,16.80
2018-05-06T07:19:42.005Z,16.90
2018-05-06T07:22:09.553Z,16.90
2018-05-06T07:24:37.046Z,16.90
2018-05-06T07:27:04.586Z,17.00
2018-05-06T07:29:32.711Z,17.10
2018-05-06T07:32:01.009Z,17.30
2018-05-06T07:34:28.530Z,17.30
2018-05-06T07:36:56.083Z,17.40
2018-05-06T07:39:23.596Z,17.40
2018-05-06T07:41:51.105Z,17.50
2018-05-06T07:44:18.646Z,17.60
2018-05-06T07:46:46.185Z,17.70
2018-05-06T07:49:13.735Z,17.80
2018-05-06T07:51:41.351Z,17.90
2018-05-06T07:54:08.893Z,18.00
2018-05-06T07:56:36.405Z,18.00
2018-05-06T07:59:03.948Z,18.10
2018-05-06T08:01:31.455Z,18.20
2018-05-06T08:03:58.987Z,18.30
2018-05-06T08:06:26.510Z,18.40
2018-05-06T08:08:54.078Z,18.40
2018-05-06T08:11:22.397Z,18.50
2018-05-06T08:13:49.903Z,18.50
2018-05-06T08:16:17.656Z,18.60
2018-05-06T08:18:45.149Z,18.60
2018-05-06T08:21:12.734Z,18.70
2018-05-06T08:23:40.234Z,18.70
2018-05-06T08:26:08.581Z,18.90
2018-05-06T08:28:36.183Z,18.80
2018-05-06T08:31:04.051Z,18.90
2018-05-06T08:33:31.702Z,19.00
2018-05-06T08:35:59.289Z,19.10
2018-05-06T08:38:28.490Z,19.20
2018-05-06T08:40:55.987Z,19.10
2018-05-06T08:43:23.628Z,19.20
2018-05-06T08:45:51.219Z,19.20
2018-05-06T08:48:19.347Z,19.30
2018-05-06T08:50:46.868Z,19.30
2018-05-06T08:53:14.407Z,19.30
2018-05-06T08:55:41.894Z,19.30
2018-05-06T08:58:09.471Z,19.40
2018-05-06T09:00:37.764Z,19.50
2018-05-06T09:03:05.318Z,19.40
2018-05-06T09:05:32.807Z,19.50
2018-05-06T09:08:00.330Z,19.60
2018-05-06T09:10:27.860Z,19.70
2018-05-06T09:12:55.350Z,19.70
2018-05-06T09:15:22.880Z,19.70
2018-05-06T09:17:51.151Z,19.90
2018-05-06T09:20:19.448Z,20.00
2018-05-06T09:22:47.711Z,20.00
2018-05-06T09:25:16.017Z,20.00
2018-05-06T09:27:43.527Z,20.10
2018-05-06T09:30:11.078Z,20.20
2018-05-06T09:32:38.577Z,20.20
2018-05-06T09:35:06.893Z,20.40
2018-05-06T09:37:34.395Z,20.40
2018-05-06T09:40:01.937Z,20.40
2018-05-06T09:42:29.571Z,20.40
2018-05-06T09:44:57.114Z,20.40
2018-05-06T09:47:24.620Z,20.50
2018-05-06T09:49:52.159Z,20.50
2018-05-06T09:52:19.653Z,20.60
2018-05-06T09:54:47.177Z,20.50
2018-05-06T09:57:14.672Z,20.40
2018-05-06T09:59:42.214Z,20.40
2018-05-06T10:02:10.492Z,20.40
2018-05-06T10:04:38.025Z,20.40
2018-05-06T10:07:05.521Z,20.40
2018-05-06T10:09:34.046Z,20.40
2018-05-06T10:12:01.586Z,20.40
2018-05-06T10:14:29.837Z,20.30
2018-05-06T10:16:58.154Z,20.30
2018-05-06T10:19:25.654Z,20.30
2018-05-06T10:21:53.214Z,20.30
2018-05-06T10:24:20.736Z,20.30
2018-05-06T10:26:48.297Z,20.30
2018-05-06T10:29:15.814Z,20.20
2018-05-06T10:31:44.139Z,20.20
2018-05-06T10:34:11.750Z,20.20
2018-05-06T10:36:40.084Z,20.20
2018-05-06T10:39:08.531Z,20.10
2018-05-06T10:41:36.095Z,20.10
2018-05-06T10:44:03.690Z,20.10
2018-05-06T10:46:31.943Z,20.10
2018-05-06T10:48:59.441Z,20.10
2018-05-06T10:51:27.127Z,20.10
2018-05-06T10:53:54.667Z,20.00
2018-05-06T10:56:22.214Z,20.00
2018-05-06T10:58:49.719Z,20.00
2018-05-06T11:01:17.597Z,20.00
2018-05-06T11:03:45.351Z,19.90
2018-05-06T11:06:13.627Z,19.90
2018-05-06T11:08:41.940Z,19.90
2018-05-06T11:11:09.442Z,19.90
2018-05-06T11:13:36.983Z,19.90
2018-05-06T11:16:04.575Z,19.80
2018-05-06T11:18:32.163Z,19.80
2018-05-06T11:20:59.725Z,19.80
2018-05-06T11:23:27.283Z,19.80
2018-05-06T11:25:55.000Z,19.70
2018-05-06T11:28:22.727Z,19.70
2018-05-06T11:30:50.234Z,19.70
2018-05-06T11:33:18.633Z,19.60
2018-05-06T11:35:46.246Z,19.60
2018-05-06T11:38:13.805Z,19.60
2018-05-06T11:40:41.807Z,19.50
2018-05-06T11:43:09.358Z,19.50
2018-05-06T11:45:37.641Z,19.50
2018-05-06T11:48:05.364Z,19.50
2018-05-06T11:50:32.836Z,19.40
2018-05-06T11:53:01.894Z,19.30
2018-05-06T11:55:29.485Z,19.40
2018-05-06T11:57:57.033Z,19.40
2018-05-06T12:00:24.545Z,19.30
2018-05-06T12:02:52.125Z,19.30
2018-05-06T12:05:19.685Z,19.20
2018-05-06T12:07:47.187Z,19.20
2018-05-06T12:10:15.506Z,19.20
2018-05-06T12:12:42.998Z,19.20
2018-05-06T12:15:10.520Z,19.10
2018-05-06T12:17:38.028Z,19.10
2018-05-06T12:20:05.616Z,19.10
2018-05-06T12:22:33.129Z,19.10
2018-05-06T12:25:00.749Z,19.10
2018-05-06T12:27:28.191Z,19.10
2018-05-06T12:29:55.730Z,19.10
2018-05-06T12:32:23.287Z,19.10
2018-05-06T12:34:50.852Z,19.10
2018-05-06T12:37:18.351Z,19.10
2018-05-06T12:39:45.898Z,19.10
2018-05-06T12:42:14.863Z,19.10
2018-05-06T12:44:42.481Z,19.10
2018-05-06T12:47:10.211Z,19.10
2018-05-06T12:49:38.510Z,19.40
2018-05-06T12:52:06.240Z,19.40
2018-05-06T12:54:33.792Z,19.70
2018-05-06T12:57:02.060Z,20.70
2018-05-06T12:59:30.397Z,21.40
2018-05-06T13:01:59.068Z,21.40
2018-05-06T13:04:26.611Z,22.30
2018-05-06T13:06:54.129Z,23.30
2018-05-06T13:09:21.710Z,23.90
2018-05-06T13:11:49.283Z,24.50
2018-05-06T13:14:17.942Z,25.40
2018-05-06T13:16:45.482Z,25.40
2018-05-06T13:19:13.047Z,25.90
2018-05-06T13:21:41.574Z,26.40
2018-05-06T13:24:09.912Z,27.30
2018-05-06T13:26:38.199Z,27.60
2018-05-06T13:29:06.494Z,28.10
2018-05-06T13:31:34.003Z,28.00
2018-05-06T13:34:01.658Z,28.60
2018-05-06T13:36:29.150Z,29.20
2018-05-06T13:38:56.708Z,29.60
2018-05-06T13:41:24.530Z,29.90
2018-05-06T13:43:52.111Z,30.20
2018-05-06T13:46:20.365Z,30.90
2018-05-06T13:48:47.899Z,30.80
2018-05-06T13:51:16.174Z,31.60
2018-05-06T13:53:43.709Z,31.60
2018-05-06T13:56:11.229Z,31.90
2018-05-06T13:58:38.777Z,32.20
2018-05-06T14:01:06.323Z,32.20
2018-05-06T14:03:34.892Z,32.90
2018-05-06T14:06:02.410Z,32.90
2018-05-06T14:08:30.045Z,33.30
2018-05-06T14:10:57.557Z,33.40
2018-05-06T14:13:25.105Z,33.60
2018-05-06T14:15:52.607Z,33.80
2018-05-06T14:18:20.175Z,33.90
2018-05-06T14:20:47.697Z,33.90
2018-05-06T14:23:15.230Z,33.20
2018-05-06T14:25:42.727Z,31.60
2018-05-06T14:28:10.284Z,30.50
2018-05-06T14:30:38.590Z,28.30
2018-05-06T14:33:06.235Z,28.20
2018-05-06T14:35:34.548Z,26.90
2018-05-06T14:38:02.072Z,26.80
2018-05-06T14:40:29.606Z,26.20
2018-05-06T14:42:57.986Z,25.00
2018-05-06T14:45:27.044Z,24.60
2018-05-06T14:48:06.275Z,24.60
2018-05-06T14:50:33.798Z,24.30
2018-05-06T14:53:02.244Z,23.60
2018-05-06T14:55:29.779Z,23.60
2018-05-06T14:57:57.266Z,23.40
2018-05-06T15:00:24.806Z,23.50
2018-05-06T15:02:52.319Z,23.30
2018-05-06T15:05:19.860Z,23.20
2018-05-06T15:07:47.376Z,23.10
2018-05-06T15:10:15.074Z,23.90
2018-05-06T15:12:43.355Z,24.80
2018-05-06T15:15:11.968Z,26.70
2018-05-06T15:17:39.498Z,26.60
2018-05-06T15:20:07.798Z,29.90
2018-05-06T15:22:35.290Z,29.90
2018-05-06T15:25:02.839Z,31.20
2018-05-06T15:27:30.346Z,32.50
2018-05-06T15:29:57.889Z,33.50
2018-05-06T15:32:25.406Z,34.20
2018-05-06T15:34:53.888Z,34.80
2018-05-06T15:37:21.468Z,35.40
2018-05-06T15:39:48.989Z,36.00
2018-05-06T15:42:16.763Z,36.50
2018-05-06T15:44:44.224Z,36.90
2018-05-06T15:47:11.754Z,37.20
2018-05-06T15:49:39.270Z,37.50
2018-05-06T15:52:06.800Z,38.00
2018-05-06T15:54:34.290Z,38.50
2018-05-06T15:57:01.828Z,38.70
2018-05-06T15:59:29.358Z,38.90
2018-05-06T16:02:07.190Z,39.20
2018-05-06T16:04:34.816Z,39.40
2018-05-06T16:07:02.415Z,39.50
2018-05-06T16:09:29.921Z,39.60
2018-05-06T16:11:57.631Z,39.60
2018-05-06T16:14:25.240Z,39.70
2018-05-06T16:16:52.761Z,38.30
2018-05-06T16:19:20.271Z,35.40
2018-05-06T16:21:48.564Z,31.70
2018-05-06T16:24:16.071Z,31.60
2018-05-06T16:26:43.600Z,30.10
2018-05-06T16:29:11.140Z,28.90
2018-05-06T16:31:39.462Z,27.80
2018-05-06T16:34:06.989Z,27.00
2018-05-06T16:36:34.598Z,26.20
2018-05-06T16:39:02.928Z,25.00
2018-05-06T16:41:30.431Z,24.90
2018-05-06T16:43:57.966Z,24.50
2018-05-06T16:46:25.521Z,24.10
2018-05-06T16:48:53.098Z,23.80
2018-05-06T16:51:20.638Z,23.40
2018-05-06T16:53:48.129Z,23.20
2018-05-06T16:56:16.544Z,22.90
2018-05-06T16:58:44.058Z,22.70
2018-05-06T17:01:11.628Z,22.50
2018-05-06T17:03:40.654Z,22.10
2018-05-06T17:06:09.059Z,22.00
2018-05-06T17:08:36.563Z,22.00
2018-05-06T17:11:04.125Z,21.90
2018-05-06T17:13:31.756Z,21.70
2018-05-06T17:15:59.345Z,21.60
2018-05-06T17:18:26.858Z,21.50
2018-05-06T17:20:54.451Z,21.40
2018-05-06T17:23:21.966Z,21.30
2018-05-06T17:25:49.499Z,21.20
2018-05-06T17:28:17.766Z,21.10
2018-05-06T17:30:46.098Z,21.00
2018-05-06T17:33:13.587Z,21.00
2018-05-06T17:35:41.083Z,21.00
2018-05-06T17:38:08.621Z,20.90
2018-05-06T17:40:36.118Z,20.90
2018-05-06T17:43:03.675Z,20.80
2018-05-06T17:45:31.182Z,20.70
2018-05-06T17:47:58.743Z,20.70
2018-05-06T17:50:26.271Z,20.70
2018-05-06T17:52:54.195Z,20.60
2018-05-06T17:55:21.701Z,20.50
2018-05-06T17:57:49.274Z,20.50
2018-05-06T18:00:16.817Z,20.40
2018-05-06T18:02:44.382Z,20.40
2018-05-06T18:05:12.120Z,20.30
2018-05-06T18:07:39.626Z,20.30
2018-05-06T18:10:07.259Z,20.20
2018-05-06T18:12:34.831Z,20.10
2018-05-06T18:15:02.439Z,20.10
2018-05-06T18:17:29.943Z,20.10
2018-05-06T18:19:57.659Z,20.00
2018-05-06T18:22:25.342Z,19.90
2018-05-06T18:24:53.012Z,19.90
2018-05-06T18:27:20.561Z,19.80
2018-05-06T18:29:48.113Z,19.80
2018-05-06T18:32:15.638Z,19.70
2018-05-06T18:34:44.126Z,19.60
2018-05-06T18:37:12.426Z,19.50
2018-05-06T18:39:39.974Z,19.50
2018-05-06T18:42:08.253Z,19.40
2018-05-06T18:44:35.795Z,19.40
2018-05-06T18:47:03.362Z,19.30
2018-05-06T18:49:30.855Z,19.30
2018-05-06T18:51:58.368Z,19.20
2018-05-06T18:54:26.675Z,19.10
2018-05-06T18:56:54.229Z,19.10
2018-05-06T18:59:21.712Z,19.00
2018-05-06T19:01:49.275Z,19.00
2018-05-06T19:04:16.795Z,18.90
2018-05-06T19:06:44.330Z,18.80
2018-05-06T19:09:12.613Z,18.70
2018-05-06T19:11:40.231Z,18.70
2018-05-06T19:14:07.736Z,18.70
2018-05-06T19:16:35.534Z,18.60
2018-05-06T19:19:03.037Z,18.60
2018-05-06T19:21:30.595Z,18.50
2018-05-06T19:23:58.187Z,18.40
2018-05-06T19:26:26.553Z,18.20
2018-05-06T19:28:54.106Z,18.10
2018-05-06T19:31:21.694Z,18.10
2018-05-06T19:33:49.225Z,18.00
2018-05-06T19:36:17.049Z,17.90
2018-05-06T19:38:44.709Z,17.80
2018-05-06T19:41:12.295Z,17.80
2018-05-06T19:43:39.831Z,17.70
2018-05-06T19:46:07.351Z,17.60
2018-05-06T19:48:35.724Z,17.50
2018-05-06T19:51:03.240Z,17.50
2018-05-06T19:53:30.895Z,17.40
2018-05-06T19:55:58.412Z,17.40
2018-05-06T19:58:26.768Z,17.30
2018-05-06T20:00:54.288Z,17.30
2018-05-06T20:03:21.835Z,17.20
2018-05-06T20:05:49.350Z,17.10
2018-05-06T20:08:16.907Z,17.00
2018-05-06T20:10:45.185Z,16.90
2018-05-06T20:13:12.741Z,16.90
2018-05-06T20:15:40.274Z,16.90
2018-05-06T20:18:07.854Z,16.80
2018-05-06T20:20:35.365Z,16.70
2018-05-06T20:23:02.859Z,16.70
2018-05-06T20:25:30.398Z,16.60
2018-05-06T20:27:57.895Z,16.60
2018-05-06T20:30:26.958Z,16.40
2018-05-06T20:32:54.462Z,16.50
2018-05-06T20:35:22.002Z,16.40
2018-05-06T20:37:49.517Z,16.30
2018-05-06T20:40:17.077Z,16.40
2018-05-06T20:42:44.572Z,16.30
2018-05-06T20:45:12.114Z,16.30
2018-05-06T20:47:39.614Z,16.20
2018-05-06T20:50:07.162Z,16.20
2018-05-06T20:52:35.602Z,16.10
2018-05-06T20:55:03.155Z,16.10
2018-05-06T20:57:30.682Z,16.10
2018-05-06T20:59:59.137Z,16.00
2018-05-06T21:02:26.645Z,15.90
2018-05-06T21:04:54.172Z,15.90
2018-05-06T21:07:22.447Z,15.90
2018-05-06T21:09:50.863Z,15.80
2018-05-06T21:12:19.163Z,15.80
2018-05-06T21:14:46.709Z,15.70
2018-05-06T21:17:15.161Z,15.70
2018-05-06T21:19:42.734Z,15.70
2018-05-06T21:22:10.351Z,15.70
2018-05-06T21:24:37.886Z,15.70
2018-05-06T21:27:05.554Z,15.70
2018-05-06T21:29:33.049Z,15.70
2018-05-06T21:32:01.402Z,15.60
2018-05-06T21:34:29.025Z,15.60
2018-05-06T21:36:56.580Z,15.60
2018-05-06T21:39:24.102Z,15.50
2018-05-06T21:41:53.222Z,15.60
2018-05-06T21:44:20.748Z,15.50
2018-05-06T21:46:48.283Z,15.50
2018-05-06T21:49:15.849Z,15.40
2018-05-06T21:51:43.566Z,15.40
2018-05-06T21:54:12.397Z,15.30
2018-05-06T21:56:40.068Z,15.20
2018-05-06T21:59:07.600Z,15.20
2018-05-06T22:01:35.139Z,15.10
2018-05-06T22:04:03.130Z,15.00
2018-05-06T22:06:34.135Z,15.00
2018-05-06T22:09:04.528Z,14.90
2018-05-06T22:11:32.108Z,14.90
2018-05-06T22:13:59.615Z,14.80
2018-05-06T22:16:27.338Z,14.90
2018-05-06T22:18:55.824Z,14.80
2018-05-06T22:21:23.402Z,14.70
2018-05-06T22:23:50.911Z,14.70
2018-05-06T22:26:18.448Z,14.80
2018-05-06T22:28:45.965Z,14.70
2018-05-06T22:31:14.287Z,14.70
2018-05-06T22:33:41.771Z,14.60
2018-05-06T22:36:09.312Z,14.60
2018-05-06T22:38:36.806Z,14.50
2018-05-06T22:41:05.119Z,14.50
2018-05-06T22:43:36.261Z,14.40
2018-05-06T22:46:03.797Z,14.40
2018-05-06T22:48:34.048Z,14.40
2018-05-06T22:51:01.590Z,14.30
2018-05-06T22:53:29.078Z,14.30
2018-05-06T22:55:57.522Z,14.30
2018-05-06T22:58:25.758Z,14.20
2018-05-06T23:00:54.062Z,14.10
2018-05-06T23:03:21.609Z,14.10
2018-05-06T23:05:49.119Z,14.10
2018-05-06T23:08:16.642Z,14.10
2018-05-06T23:10:44.138Z,14.00
2018-05-06T23:13:11.727Z,14.00
2018-05-06T23:15:39.220Z,14.00
2018-05-06T23:18:06.755Z,14.00
2018-05-06T23:20:35.023Z,13.90
2018-05-06T23:23:03.335Z,13.80
2018-05-06T23:25:30.831Z,13.80
2018-05-06T23:27:58.363Z,13.80
2018-05-06T23:30:25.847Z,13.70
2018-05-06T23:32:53.468Z,13.70
2018-05-06T23:35:21.077Z,13.60
2018-05-06T23:37:48.627Z,13.60
2018-05-06T23:40:16.139Z,13.60
2018-05-06T23:42:44.448Z,13.60
2018-05-06T23:45:11.939Z,13.60
2018-05-06T23:47:39.435Z,13.60
2018-05-06T23:50:06.960Z,13.50
2018-05-06T23:52:35.247Z,13.40
2018-05-06T23:55:03.548Z,13.50
2018-05-06T23:57:31.047Z,13.40
2018-05-06T23:59:58.597Z,13.40
